sensor_id;sensor_type;location;lat;lon;timestamp;P1;durP1;ratioP1;P2;durP2;ratioP2
21402;SDS011;10862;51.886;17.078;2023-01-31T00:00:02;22.47;;;20.07;;
21402;SDS011;10862;51.886;17.078;2023-01-31T00:02:32;25.93;;;23.43;;
21402;SDS011;10862;51.886;17.078;2023-01-31T00:04:57;22.30;;;20.63;;
21402;SDS011;10862;51.886;17.078;2023-01-31T00:07:24;28.33;;;25.40;;
21402;SDS011;10862;51.886;17.078;2023-01-31T00:09:50;26.90;;;24.67;;
21402;SDS011;10862;51.886;17.078;2023-01-31T00:12:16;22.47;;;20.27;;
21402;SDS011;10862;51.886;17.078;2023-01-31T00:14:41;26.43;;;24.50;;
21402;SDS011;10862;51.886;17.078;2023-01-31T00:17:07;27.43;;;25.87;;
21402;SDS011;10862;51.886;17.078;2023-01-31T00:19:33;23.93;;;22.00;;
21402;SDS011;10862;51.886;17.078;2023-01-31T00:21:58;13.13;;;12.33;;
21402;SDS011;10862;51.886;17.078;2023-01-31T00:24:24;18.10;;;14.43;;
21402;SDS011;10862;51.886;17.078;2023-01-31T00:26:50;13.97;;;12.83;;
21402;SDS011;10862;51.886;17.078;2023-01-31T00:29:21;17.63;;;11.77;;
21402;SDS011;10862;51.886;17.078;2023-01-31T00:31:48;15.27;;;12.20;;
21402;SDS011;10862;51.886;17.078;2023-01-31T00:34:14;13.37;;;12.30;;
21402;SDS011;10862;51.886;17.078;2023-01-31T00:36:40;12.70;;;11.53;;
21402;SDS011;10862;51.886;17.078;2023-01-31T00:39:06;15.93;;;13.03;;
21402;SDS011;10862;51.886;17.078;2023-01-31T00:41:33;16.00;;;11.93;;
21402;SDS011;10862;51.886;17.078;2023-01-31T00:44:01;12.77;;;11.50;;
21402;SDS011;10862;51.886;17.078;2023-01-31T00:46:27;15.80;;;13.83;;
21402;SDS011;10862;51.886;17.078;2023-01-31T00:48:53;20.13;;;18.50;;
21402;SDS011;10862;51.886;17.078;2023-01-31T00:51:20;17.27;;;15.50;;
21402;SDS011;10862;51.886;17.078;2023-01-31T00:53:47;17.80;;;16.57;;
21402;SDS011;10862;51.886;17.078;2023-01-31T00:56:15;12.73;;;11.60;;
21402;SDS011;10862;51.886;17.078;2023-01-31T00:58:47;13.70;;;12.70;;
21402;SDS011;10862;51.886;17.078;2023-01-31T01:01:14;12.90;;;12.07;;
21402;SDS011;10862;51.886;17.078;2023-01-31T01:03:42;11.40;;;10.40;;
21402;SDS011;10862;51.886;17.078;2023-01-31T01:06:09;19.07;;;13.53;;
21402;SDS011;10862;51.886;17.078;2023-01-31T01:08:36;13.67;;;12.40;;
21402;SDS011;10862;51.886;17.078;2023-01-31T01:13:43;22.53;;;14.33;;
21402;SDS011;10862;51.886;17.078;2023-01-31T01:16:14;11.83;;;10.90;;
21402;SDS011;10862;51.886;17.078;2023-01-31T01:18:44;25.53;;;14.07;;
21402;SDS011;10862;51.886;17.078;2023-01-31T01:21:16;15.07;;;12.90;;
21402;SDS011;10862;51.886;17.078;2023-01-31T01:23:45;16.17;;;12.07;;
21402;SDS011;10862;51.886;17.078;2023-01-31T01:28:47;12.43;;;11.73;;
21402;SDS011;10862;51.886;17.078;2023-01-31T01:31:15;14.63;;;13.53;;
21402;SDS011;10862;51.886;17.078;2023-01-31T01:33:42;12.63;;;11.67;;
21402;SDS011;10862;51.886;17.078;2023-01-31T01:36:09;13.10;;;11.83;;
21402;SDS011;10862;51.886;17.078;2023-01-31T01:38:37;12.43;;;11.37;;
21402;SDS011;10862;51.886;17.078;2023-01-31T01:41:07;15.43;;;14.00;;
21402;SDS011;10862;51.886;17.078;2023-01-31T01:43:43;19.63;;;17.67;;
21402;SDS011;10862;51.886;17.078;2023-01-31T01:46:22;15.57;;;11.90;;
21402;SDS011;10862;51.886;17.078;2023-01-31T01:48:59;13.33;;;12.43;;
21402;SDS011;10862;51.886;17.078;2023-01-31T01:51:37;15.23;;;13.83;;
21402;SDS011;10862;51.886;17.078;2023-01-31T01:54:05;15.77;;;14.67;;
21402;SDS011;10862;51.886;17.078;2023-01-31T01:56:35;17.13;;;12.87;;
21402;SDS011;10862;51.886;17.078;2023-01-31T01:59:08;13.90;;;13.20;;
21402;SDS011;10862;51.886;17.078;2023-01-31T02:01:39;12.63;;;11.87;;
21402;SDS011;10862;51.886;17.078;2023-01-31T02:04:05;13.97;;;12.87;;
21402;SDS011;10862;51.886;17.078;2023-01-31T02:06:34;14.20;;;13.10;;
21402;SDS011;10862;51.886;17.078;2023-01-31T02:08:59;13.77;;;12.63;;
21402;SDS011;10862;51.886;17.078;2023-01-31T02:11:28;15.43;;;13.60;;
21402;SDS011;10862;51.886;17.078;2023-01-31T02:13:57;15.47;;;13.57;;
21402;SDS011;10862;51.886;17.078;2023-01-31T02:16:29;11.37;;;10.20;;
21402;SDS011;10862;51.886;17.078;2023-01-31T02:18:54;11.33;;;10.63;;
21402;SDS011;10862;51.886;17.078;2023-01-31T02:32:20;12.87;;;11.50;;
21402;SDS011;10862;51.886;17.078;2023-01-31T02:35:12;14.50;;;13.17;;
21402;SDS011;10862;51.886;17.078;2023-01-31T02:38:11;13.27;;;11.87;;
21402;SDS011;10862;51.886;17.078;2023-01-31T02:43:53;15.03;;;13.50;;
21402;SDS011;10862;51.886;17.078;2023-01-31T02:49:34;16.43;;;14.83;;
21402;SDS011;10862;51.886;17.078;2023-01-31T02:54:50;29.37;;;16.17;;
21402;SDS011;10862;51.886;17.078;2023-01-31T02:57:52;16.13;;;13.87;;
21402;SDS011;10862;51.886;17.078;2023-01-31T03:00:19;19.20;;;13.37;;
21402;SDS011;10862;51.886;17.078;2023-01-31T03:02:48;15.70;;;14.20;;
21402;SDS011;10862;51.886;17.078;2023-01-31T03:05:14;13.93;;;12.63;;
21402;SDS011;10862;51.886;17.078;2023-01-31T03:07:41;14.40;;;12.93;;
21402;SDS011;10862;51.886;17.078;2023-01-31T03:18:24;15.63;;;13.57;;
21402;SDS011;10862;51.886;17.078;2023-01-31T03:21:11;17.73;;;16.13;;
21402;SDS011;10862;51.886;17.078;2023-01-31T03:23:40;23.93;;;21.77;;
21402;SDS011;10862;51.886;17.078;2023-01-31T03:26:09;33.90;;;25.87;;
21402;SDS011;10862;51.886;17.078;2023-01-31T03:28:37;29.83;;;22.93;;
21402;SDS011;10862;51.886;17.078;2023-01-31T03:31:11;12.50;;;10.93;;
21402;SDS011;10862;51.886;17.078;2023-01-31T03:33:53;14.60;;;13.37;;
21402;SDS011;10862;51.886;17.078;2023-01-31T03:39:16;11.43;;;10.63;;
21402;SDS011;10862;51.886;17.078;2023-01-31T03:42:03;15.73;;;12.40;;
21402;SDS011;10862;51.886;17.078;2023-01-31T03:47:39;14.20;;;12.77;;
21402;SDS011;10862;51.886;17.078;2023-01-31T03:50:30;12.10;;;11.27;;
21402;SDS011;10862;51.886;17.078;2023-01-31T03:53:07;19.87;;;13.77;;
21402;SDS011;10862;51.886;17.078;2023-01-31T03:55:57;15.43;;;13.87;;
21402;SDS011;10862;51.886;17.078;2023-01-31T03:58:28;12.80;;;11.70;;
21402;SDS011;10862;51.886;17.078;2023-01-31T04:00:56;13.80;;;12.33;;
21402;SDS011;10862;51.886;17.078;2023-01-31T04:06:08;25.90;;;17.40;;
21402;SDS011;10862;51.886;17.078;2023-01-31T04:08:34;27.60;;;15.80;;
21402;SDS011;10862;51.886;17.078;2023-01-31T04:11:04;29.23;;;16.47;;
21402;SDS011;10862;51.886;17.078;2023-01-31T04:13:33;23.83;;;13.23;;
21402;SDS011;10862;51.886;17.078;2023-01-31T04:15:59;31.50;;;18.30;;
21402;SDS011;10862;51.886;17.078;2023-01-31T04:18:25;18.20;;;13.23;;
21402;SDS011;10862;51.886;17.078;2023-01-31T04:20:51;26.00;;;13.57;;
21402;SDS011;10862;51.886;17.078;2023-01-31T04:23:17;22.03;;;14.70;;
21402;SDS011;10862;51.886;17.078;2023-01-31T04:25:43;18.03;;;16.63;;
21402;SDS011;10862;51.886;17.078;2023-01-31T04:28:09;27.83;;;19.07;;
21402;SDS011;10862;51.886;17.078;2023-01-31T04:30:34;12.37;;;11.37;;
21402;SDS011;10862;51.886;17.078;2023-01-31T04:33:00;21.37;;;15.17;;
21402;SDS011;10862;51.886;17.078;2023-01-31T04:35:26;17.20;;;12.37;;
21402;SDS011;10862;51.886;17.078;2023-01-31T04:37:52;30.63;;;15.03;;
21402;SDS011;10862;51.886;17.078;2023-01-31T04:40:17;16.03;;;11.13;;
21402;SDS011;10862;51.886;17.078;2023-01-31T04:42:43;11.23;;;10.23;;
21402;SDS011;10862;51.886;17.078;2023-01-31T04:45:09;14.53;;;11.57;;
21402;SDS011;10862;51.886;17.078;2023-01-31T04:47:35;18.90;;;12.83;;
21402;SDS011;10862;51.886;17.078;2023-01-31T04:50:01;19.63;;;11.43;;
21402;SDS011;10862;51.886;17.078;2023-01-31T04:52:31;28.77;;;14.17;;
21402;SDS011;10862;51.886;17.078;2023-01-31T04:54:57;19.23;;;13.63;;
21402;SDS011;10862;51.886;17.078;2023-01-31T04:57:23;15.03;;;10.70;;
21402;SDS011;10862;51.886;17.078;2023-01-31T04:59:49;20.70;;;12.23;;
21402;SDS011;10862;51.886;17.078;2023-01-31T05:02:16;17.33;;;15.60;;
21402;SDS011;10862;51.886;17.078;2023-01-31T05:04:42;19.13;;;16.37;;
21402;SDS011;10862;51.886;17.078;2023-01-31T05:07:08;24.30;;;18.80;;
21402;SDS011;10862;51.886;17.078;2023-01-31T05:09:34;26.07;;;15.43;;
21402;SDS011;10862;51.886;17.078;2023-01-31T05:11:59;23.60;;;14.93;;
21402;SDS011;10862;51.886;17.078;2023-01-31T05:14:25;20.13;;;14.93;;
21402;SDS011;10862;51.886;17.078;2023-01-31T05:16:52;21.13;;;15.73;;
21402;SDS011;10862;51.886;17.078;2023-01-31T05:19:17;27.10;;;17.60;;
21402;SDS011;10862;51.886;17.078;2023-01-31T05:21:43;31.80;;;22.43;;
21402;SDS011;10862;51.886;17.078;2023-01-31T05:24:27;28.93;;;19.40;;
21402;SDS011;10862;51.886;17.078;2023-01-31T05:26:55;25.40;;;23.07;;
21402;SDS011;10862;51.886;17.078;2023-01-31T05:29:23;29.97;;;27.40;;
21402;SDS011;10862;51.886;17.078;2023-01-31T05:31:51;19.53;;;15.53;;
21402;SDS011;10862;51.886;17.078;2023-01-31T05:34:21;18.30;;;15.93;;
21402;SDS011;10862;51.886;17.078;2023-01-31T05:36:49;23.13;;;17.30;;
21402;SDS011;10862;51.886;17.078;2023-01-31T05:39:16;19.00;;;17.03;;
21402;SDS011;10862;51.886;17.078;2023-01-31T05:41:41;14.97;;;14.03;;
21402;SDS011;10862;51.886;17.078;2023-01-31T05:44:07;16.63;;;15.37;;
21402;SDS011;10862;51.886;17.078;2023-01-31T05:46:34;19.60;;;17.43;;
21402;SDS011;10862;51.886;17.078;2023-01-31T05:49:00;21.17;;;17.53;;
21402;SDS011;10862;51.886;17.078;2023-01-31T05:51:26;21.63;;;14.20;;
21402;SDS011;10862;51.886;17.078;2023-01-31T05:53:52;25.87;;;15.97;;
21402;SDS011;10862;51.886;17.078;2023-01-31T05:56:18;17.80;;;16.30;;
21402;SDS011;10862;51.886;17.078;2023-01-31T05:58:44;17.83;;;15.53;;
21402;SDS011;10862;51.886;17.078;2023-01-31T06:01:15;21.50;;;17.43;;
21402;SDS011;10862;51.886;17.078;2023-01-31T06:03:41;17.63;;;16.47;;
21402;SDS011;10862;51.886;17.078;2023-01-31T06:06:07;23.07;;;18.73;;
21402;SDS011;10862;51.886;17.078;2023-01-31T06:08:32;32.37;;;17.57;;
21402;SDS011;10862;51.886;17.078;2023-01-31T06:11:01;19.57;;;18.03;;
21402;SDS011;10862;51.886;17.078;2023-01-31T06:13:31;17.53;;;15.87;;
21402;SDS011;10862;51.886;17.078;2023-01-31T06:15:56;20.30;;;16.20;;
21402;SDS011;10862;51.886;17.078;2023-01-31T06:18:22;17.87;;;13.60;;
21402;SDS011;10862;51.886;17.078;2023-01-31T06:20:49;25.77;;;17.60;;
21402;SDS011;10862;51.886;17.078;2023-01-31T06:23:15;21.27;;;17.17;;
21402;SDS011;10862;51.886;17.078;2023-01-31T06:25:40;20.37;;;17.07;;
21402;SDS011;10862;51.886;17.078;2023-01-31T06:28:06;31.00;;;17.43;;
21402;SDS011;10862;51.886;17.078;2023-01-31T06:30:32;19.67;;;16.63;;
21402;SDS011;10862;51.886;17.078;2023-01-31T06:33:00;19.57;;;17.40;;
21402;SDS011;10862;51.886;17.078;2023-01-31T06:35:27;18.37;;;16.70;;
21402;SDS011;10862;51.886;17.078;2023-01-31T06:37:53;43.83;;;26.63;;
21402;SDS011;10862;51.886;17.078;2023-01-31T06:40:19;38.77;;;26.23;;
21402;SDS011;10862;51.886;17.078;2023-01-31T06:42:45;23.90;;;17.10;;
21402;SDS011;10862;51.886;17.078;2023-01-31T06:45:11;25.47;;;18.00;;
21402;SDS011;10862;51.886;17.078;2023-01-31T06:47:37;27.43;;;17.07;;
21402;SDS011;10862;51.886;17.078;2023-01-31T06:50:03;19.17;;;13.37;;
21402;SDS011;10862;51.886;17.078;2023-01-31T06:52:29;17.87;;;14.87;;
21402;SDS011;10862;51.886;17.078;2023-01-31T06:54:54;15.83;;;14.30;;
21402;SDS011;10862;51.886;17.078;2023-01-31T06:57:20;17.60;;;15.87;;
21402;SDS011;10862;51.886;17.078;2023-01-31T06:59:46;25.37;;;18.27;;
21402;SDS011;10862;51.886;17.078;2023-01-31T07:02:11;24.20;;;20.37;;
21402;SDS011;10862;51.886;17.078;2023-01-31T07:04:37;17.80;;;15.33;;
21402;SDS011;10862;51.886;17.078;2023-01-31T07:07:03;18.23;;;15.67;;
21402;SDS011;10862;51.886;17.078;2023-01-31T07:09:29;27.20;;;20.27;;
21402;SDS011;10862;51.886;17.078;2023-01-31T07:11:54;26.60;;;24.23;;
21402;SDS011;10862;51.886;17.078;2023-01-31T07:14:20;23.07;;;21.23;;
21402;SDS011;10862;51.886;17.078;2023-01-31T07:16:46;25.80;;;23.07;;
21402;SDS011;10862;51.886;17.078;2023-01-31T07:19:11;29.00;;;23.20;;
21402;SDS011;10862;51.886;17.078;2023-01-31T07:21:37;24.83;;;22.23;;
21402;SDS011;10862;51.886;17.078;2023-01-31T07:24:03;22.97;;;21.10;;
21402;SDS011;10862;51.886;17.078;2023-01-31T07:26:29;26.07;;;23.10;;
21402;SDS011;10862;51.886;17.078;2023-01-31T07:28:54;26.40;;;21.60;;
21402;SDS011;10862;51.886;17.078;2023-01-31T07:31:20;22.70;;;20.67;;
21402;SDS011;10862;51.886;17.078;2023-01-31T07:33:46;25.00;;;20.30;;
21402;SDS011;10862;51.886;17.078;2023-01-31T07:36:12;24.70;;;22.33;;
21402;SDS011;10862;51.886;17.078;2023-01-31T07:38:39;26.30;;;21.67;;
21402;SDS011;10862;51.886;17.078;2023-01-31T07:41:06;32.17;;;27.03;;
21402;SDS011;10862;51.886;17.078;2023-01-31T07:43:33;25.47;;;22.77;;
21402;SDS011;10862;51.886;17.078;2023-01-31T07:45:59;29.27;;;21.37;;
21402;SDS011;10862;51.886;17.078;2023-01-31T07:48:24;23.43;;;21.57;;
21402;SDS011;10862;51.886;17.078;2023-01-31T07:50:57;27.13;;;24.40;;
21402;SDS011;10862;51.886;17.078;2023-01-31T07:53:26;24.77;;;22.90;;
21402;SDS011;10862;51.886;17.078;2023-01-31T07:56:16;25.50;;;23.57;;
21402;SDS011;10862;51.886;17.078;2023-01-31T07:58:44;49.37;;;34.77;;
21402;SDS011;10862;51.886;17.078;2023-01-31T08:01:15;28.13;;;24.97;;
21402;SDS011;10862;51.886;17.078;2023-01-31T08:04:02;29.47;;;18.50;;
21402;SDS011;10862;51.886;17.078;2023-01-31T08:06:28;40.53;;;24.20;;
21402;SDS011;10862;51.886;17.078;2023-01-31T08:08:55;50.50;;;27.03;;
21402;SDS011;10862;51.886;17.078;2023-01-31T08:11:21;33.73;;;20.27;;
21402;SDS011;10862;51.886;17.078;2023-01-31T08:13:47;49.87;;;17.37;;
21402;SDS011;10862;51.886;17.078;2023-01-31T08:16:13;30.53;;;18.30;;
21402;SDS011;10862;51.886;17.078;2023-01-31T08:18:39;70.37;;;29.10;;
21402;SDS011;10862;51.886;17.078;2023-01-31T08:21:05;52.80;;;25.20;;
21402;SDS011;10862;51.886;17.078;2023-01-31T08:23:32;23.33;;;16.67;;
21402;SDS011;10862;51.886;17.078;2023-01-31T08:25:59;24.40;;;17.70;;
21402;SDS011;10862;51.886;17.078;2023-01-31T08:28:29;51.87;;;26.20;;
21402;SDS011;10862;51.886;17.078;2023-01-31T08:30:55;44.67;;;24.37;;
21402;SDS011;10862;51.886;17.078;2023-01-31T08:33:21;38.73;;;22.77;;
21402;SDS011;10862;51.886;17.078;2023-01-31T08:35:47;20.70;;;18.50;;
21402;SDS011;10862;51.886;17.078;2023-01-31T08:38:13;15.90;;;14.37;;
21402;SDS011;10862;51.886;17.078;2023-01-31T08:40:39;41.60;;;24.10;;
21402;SDS011;10862;51.886;17.078;2023-01-31T08:43:05;29.20;;;20.63;;
21402;SDS011;10862;51.886;17.078;2023-01-31T08:45:30;47.43;;;23.87;;
21402;SDS011;10862;51.886;17.078;2023-01-31T08:47:57;32.57;;;21.43;;
21402;SDS011;10862;51.886;17.078;2023-01-31T08:50:24;30.27;;;17.93;;
21402;SDS011;10862;51.886;17.078;2023-01-31T08:52:55;33.37;;;21.20;;
21402;SDS011;10862;51.886;17.078;2023-01-31T08:55:22;32.63;;;19.97;;
21402;SDS011;10862;51.886;17.078;2023-01-31T08:57:49;19.67;;;14.97;;
21402;SDS011;10862;51.886;17.078;2023-01-31T09:00:16;22.00;;;15.97;;
21402;SDS011;10862;51.886;17.078;2023-01-31T09:02:42;23.67;;;15.30;;
21402;SDS011;10862;51.886;17.078;2023-01-31T09:05:10;24.30;;;17.20;;
21402;SDS011;10862;51.886;17.078;2023-01-31T09:07:37;23.90;;;21.50;;
21402;SDS011;10862;51.886;17.078;2023-01-31T09:10:03;25.00;;;20.20;;
21402;SDS011;10862;51.886;17.078;2023-01-31T09:12:29;21.80;;;19.60;;
21402;SDS011;10862;51.886;17.078;2023-01-31T09:14:54;24.50;;;19.93;;
21402;SDS011;10862;51.886;17.078;2023-01-31T09:17:20;39.47;;;27.90;;
21402;SDS011;10862;51.886;17.078;2023-01-31T09:19:46;26.80;;;21.27;;
21402;SDS011;10862;51.886;17.078;2023-01-31T09:22:12;24.33;;;18.30;;
21402;SDS011;10862;51.886;17.078;2023-01-31T09:24:38;30.20;;;22.57;;
21402;SDS011;10862;51.886;17.078;2023-01-31T09:27:04;22.90;;;20.70;;
21402;SDS011;10862;51.886;17.078;2023-01-31T09:29:30;20.83;;;18.67;;
21402;SDS011;10862;51.886;17.078;2023-01-31T09:31:56;31.63;;;19.53;;
21402;SDS011;10862;51.886;17.078;2023-01-31T09:34:21;25.27;;;22.23;;
21402;SDS011;10862;51.886;17.078;2023-01-31T09:36:47;31.50;;;23.53;;
21402;SDS011;10862;51.886;17.078;2023-01-31T09:39:13;64.90;;;34.40;;
21402;SDS011;10862;51.886;17.078;2023-01-31T09:44:12;45.13;;;31.80;;
21402;SDS011;10862;51.886;17.078;2023-01-31T09:47:13;30.33;;;27.13;;
21402;SDS011;10862;51.886;17.078;2023-01-31T09:49:53;35.13;;;29.07;;
21402;SDS011;10862;51.886;17.078;2023-01-31T09:52:24;31.80;;;27.97;;
21402;SDS011;10862;51.886;17.078;2023-01-31T09:54:52;25.30;;;22.90;;
21402;SDS011;10862;51.886;17.078;2023-01-31T09:57:22;26.67;;;24.10;;
21402;SDS011;10862;51.886;17.078;2023-01-31T10:00:15;24.73;;;22.57;;
21402;SDS011;10862;51.886;17.078;2023-01-31T10:02:53;30.90;;;26.70;;
21402;SDS011;10862;51.886;17.078;2023-01-31T10:05:36;40.83;;;31.63;;
21402;SDS011;10862;51.886;17.078;2023-01-31T10:17:18;28.50;;;23.93;;
21402;SDS011;10862;51.886;17.078;2023-01-31T10:22:51;26.90;;;19.20;;
21402;SDS011;10862;51.886;17.078;2023-01-31T10:25:37;24.33;;;19.80;;
21402;SDS011;10862;51.886;17.078;2023-01-31T10:28:22;18.77;;;16.80;;
21402;SDS011;10862;51.886;17.078;2023-01-31T10:30:57;17.13;;;15.50;;
21402;SDS011;10862;51.886;17.078;2023-01-31T10:39:45;24.47;;;16.83;;
21402;SDS011;10862;51.886;17.078;2023-01-31T10:44:49;19.93;;;17.33;;
21402;SDS011;10862;51.886;17.078;2023-01-31T10:47:38;35.67;;;21.60;;
21402;SDS011;10862;51.886;17.078;2023-01-31T10:56:33;24.30;;;16.73;;
21402;SDS011;10862;51.886;17.078;2023-01-31T10:59:03;35.40;;;21.23;;
21402;SDS011;10862;51.886;17.078;2023-01-31T11:01:33;31.83;;;18.80;;
21402;SDS011;10862;51.886;17.078;2023-01-31T11:04:00;20.40;;;18.00;;
21402;SDS011;10862;51.886;17.078;2023-01-31T11:06:26;33.63;;;23.33;;
21402;SDS011;10862;51.886;17.078;2023-01-31T11:11:23;28.23;;;20.53;;
21402;SDS011;10862;51.886;17.078;2023-01-31T11:13:55;27.67;;;20.00;;
21402;SDS011;10862;51.886;17.078;2023-01-31T11:16:32;34.23;;;22.87;;
21402;SDS011;10862;51.886;17.078;2023-01-31T11:19:01;20.87;;;18.67;;
21402;SDS011;10862;51.886;17.078;2023-01-31T11:21:39;22.80;;;19.87;;
21402;SDS011;10862;51.886;17.078;2023-01-31T11:24:15;28.07;;;21.63;;
21402;SDS011;10862;51.886;17.078;2023-01-31T11:29:49;22.20;;;19.90;;
21402;SDS011;10862;51.886;17.078;2023-01-31T11:32:19;23.80;;;21.50;;
21402;SDS011;10862;51.886;17.078;2023-01-31T11:34:56;24.70;;;22.03;;
21402;SDS011;10862;51.886;17.078;2023-01-31T11:37:29;32.40;;;19.67;;
21402;SDS011;10862;51.886;17.078;2023-01-31T11:39:57;40.53;;;30.73;;
21402;SDS011;10862;51.886;17.078;2023-01-31T11:42:28;25.27;;;23.00;;
21402;SDS011;10862;51.886;17.078;2023-01-31T11:45:01;30.67;;;24.90;;
21402;SDS011;10862;51.886;17.078;2023-01-31T11:50:03;88.27;;;44.63;;
21402;SDS011;10862;51.886;17.078;2023-01-31T11:52:31;34.87;;;25.40;;
21402;SDS011;10862;51.886;17.078;2023-01-31T11:54:59;29.47;;;24.80;;
21402;SDS011;10862;51.886;17.078;2023-01-31T11:57:40;31.90;;;25.13;;
21402;SDS011;10862;51.886;17.078;2023-01-31T12:00:18;42.73;;;34.83;;
21402;SDS011;10862;51.886;17.078;2023-01-31T12:02:52;43.93;;;33.87;;
21402;SDS011;10862;51.886;17.078;2023-01-31T12:05:47;111.10;;;48.87;;
21402;SDS011;10862;51.886;17.078;2023-01-31T12:08:28;45.40;;;32.97;;
21402;SDS011;10862;51.886;17.078;2023-01-31T12:11:04;37.20;;;30.67;;
21402;SDS011;10862;51.886;17.078;2023-01-31T12:13:30;26.13;;;23.43;;
21402;SDS011;10862;51.886;17.078;2023-01-31T12:15:57;27.87;;;25.17;;
21402;SDS011;10862;51.886;17.078;2023-01-31T12:18:43;63.67;;;34.53;;
21402;SDS011;10862;51.886;17.078;2023-01-31T12:21:14;35.40;;;27.97;;
21402;SDS011;10862;51.886;17.078;2023-01-31T12:26:54;28.00;;;25.40;;
21402;SDS011;10862;51.886;17.078;2023-01-31T12:37:34;26.43;;;22.13;;
21402;SDS011;10862;51.886;17.078;2023-01-31T12:51:59;102.93;;;44.53;;
21402;SDS011;10862;51.886;17.078;2023-01-31T13:06:05;42.13;;;32.80;;
21402;SDS011;10862;51.886;17.078;2023-01-31T13:08:39;45.13;;;30.73;;
21402;SDS011;10862;51.886;17.078;2023-01-31T13:11:09;41.87;;;28.27;;
21402;SDS011;10862;51.886;17.078;2023-01-31T13:16:21;65.80;;;32.37;;
21402;SDS011;10862;51.886;17.078;2023-01-31T13:19:02;82.53;;;38.70;;
21402;SDS011;10862;51.886;17.078;2023-01-31T13:21:32;80.10;;;36.00;;
21402;SDS011;10862;51.886;17.078;2023-01-31T13:24:09;57.43;;;31.07;;
21402;SDS011;10862;51.886;17.078;2023-01-31T13:26:41;49.10;;;26.03;;
21402;SDS011;10862;51.886;17.078;2023-01-31T13:29:22;30.90;;;23.40;;
21402;SDS011;10862;51.886;17.078;2023-01-31T13:34:36;127.97;;;52.67;;
21402;SDS011;10862;51.886;17.078;2023-01-31T13:37:12;43.93;;;31.17;;
21402;SDS011;10862;51.886;17.078;2023-01-31T13:39:47;47.57;;;30.60;;
21402;SDS011;10862;51.886;17.078;2023-01-31T13:42:14;32.27;;;25.97;;
21402;SDS011;10862;51.886;17.078;2023-01-31T13:44:40;44.17;;;30.67;;
21402;SDS011;10862;51.886;17.078;2023-01-31T13:47:15;49.63;;;32.40;;
21402;SDS011;10862;51.886;17.078;2023-01-31T13:52:25;32.30;;;24.20;;
21402;SDS011;10862;51.886;17.078;2023-01-31T13:55:04;35.37;;;23.87;;
21402;SDS011;10862;51.886;17.078;2023-01-31T13:57:34;31.47;;;23.03;;
21402;SDS011;10862;51.886;17.078;2023-01-31T14:03:02;50.70;;;28.20;;
21402;SDS011;10862;51.886;17.078;2023-01-31T14:13:48;36.20;;;22.83;;
21402;SDS011;10862;51.886;17.078;2023-01-31T14:16:36;75.33;;;39.17;;
21402;SDS011;10862;51.886;17.078;2023-01-31T14:57:56;79.50;;;42.70;;
21402;SDS011;10862;51.886;17.078;2023-01-31T15:03:06;74.57;;;39.20;;
21402;SDS011;10862;51.886;17.078;2023-01-31T15:05:50;174.93;;;65.03;;
21402;SDS011;10862;51.886;17.078;2023-01-31T15:18:50;65.63;;;40.03;;
21402;SDS011;10862;51.886;17.078;2023-01-31T15:21:24;54.60;;;39.77;;
21402;SDS011;10862;51.886;17.078;2023-01-31T15:23:59;89.93;;;44.40;;
21402;SDS011;10862;51.886;17.078;2023-01-31T15:26:27;66.90;;;40.50;;
21402;SDS011;10862;51.886;17.078;2023-01-31T15:28:56;60.23;;;40.73;;
21402;SDS011;10862;51.886;17.078;2023-01-31T15:31:29;45.97;;;38.70;;
21402;SDS011;10862;51.886;17.078;2023-01-31T15:34:01;46.23;;;40.80;;
21402;SDS011;10862;51.886;17.078;2023-01-31T15:37:13;57.53;;;40.33;;
21402;SDS011;10862;51.886;17.078;2023-01-31T15:39:42;69.90;;;40.03;;
21402;SDS011;10862;51.886;17.078;2023-01-31T15:42:26;75.87;;;40.03;;
21402;SDS011;10862;51.886;17.078;2023-01-31T15:45:11;64.70;;;42.50;;
21402;SDS011;10862;51.886;17.078;2023-01-31T15:47:54;95.00;;;45.77;;
21402;SDS011;10862;51.886;17.078;2023-01-31T15:50:21;105.70;;;46.90;;
21402;SDS011;10862;51.886;17.078;2023-01-31T15:52:46;57.80;;;34.03;;
21402;SDS011;10862;51.886;17.078;2023-01-31T15:55:13;93.47;;;46.67;;
21402;SDS011;10862;51.886;17.078;2023-01-31T15:57:43;109.93;;;50.90;;
21402;SDS011;10862;51.886;17.078;2023-01-31T16:00:35;81.13;;;38.27;;
21402;SDS011;10862;51.886;17.078;2023-01-31T16:03:02;85.30;;;46.63;;
21402;SDS011;10862;51.886;17.078;2023-01-31T16:05:31;98.87;;;45.23;;
21402;SDS011;10862;51.886;17.078;2023-01-31T16:08:00;95.00;;;43.28;;
21402;SDS011;10862;51.886;17.078;2023-01-31T16:10:28;74.47;;;40.87;;
21402;SDS011;10862;51.886;17.078;2023-01-31T16:12:55;102.80;;;60.23;;
21402;SDS011;10862;51.886;17.078;2023-01-31T16:15:23;229.77;;;105.33;;
21402;SDS011;10862;51.886;17.078;2023-01-31T16:17:52;114.07;;;57.07;;
21402;SDS011;10862;51.886;17.078;2023-01-31T16:20:42;113.30;;;55.90;;
21402;SDS011;10862;51.886;17.078;2023-01-31T16:23:35;102.77;;;60.13;;
21402;SDS011;10862;51.886;17.078;2023-01-31T16:26:06;72.17;;;43.17;;
21402;SDS011;10862;51.886;17.078;2023-01-31T16:28:43;104.77;;;66.13;;
21402;SDS011;10862;51.886;17.078;2023-01-31T16:31:14;178.40;;;126.43;;
21402;SDS011;10862;51.886;17.078;2023-01-31T16:33:46;139.20;;;91.97;;
21402;SDS011;10862;51.886;17.078;2023-01-31T16:36:15;170.80;;;75.20;;
21402;SDS011;10862;51.886;17.078;2023-01-31T16:38:53;88.50;;;54.70;;
21402;SDS011;10862;51.886;17.078;2023-01-31T16:41:35;70.03;;;52.43;;
21402;SDS011;10862;51.886;17.078;2023-01-31T16:44:21;47.30;;;34.27;;
21402;SDS011;10862;51.886;17.078;2023-01-31T16:46:50;59.57;;;43.70;;
21402;SDS011;10862;51.886;17.078;2023-01-31T16:49:30;83.73;;;52.57;;
21402;SDS011;10862;51.886;17.078;2023-01-31T16:55:00;46.50;;;33.67;;
21402;SDS011;10862;51.886;17.078;2023-01-31T16:59:59;44.77;;;37.57;;
21402;SDS011;10862;51.886;17.078;2023-01-31T17:02:26;42.37;;;34.00;;
21402;SDS011;10862;51.886;17.078;2023-01-31T17:04:57;47.37;;;35.37;;
21402;SDS011;10862;51.886;17.078;2023-01-31T17:10:00;70.93;;;46.60;;
21402;SDS011;10862;51.886;17.078;2023-01-31T17:12:29;70.23;;;37.70;;
21402;SDS011;10862;51.886;17.078;2023-01-31T17:14:57;48.80;;;31.53;;
21402;SDS011;10862;51.886;17.078;2023-01-31T17:17:24;41.77;;;28.67;;
21402;SDS011;10862;51.886;17.078;2023-01-31T17:19:57;38.20;;;28.13;;
21402;SDS011;10862;51.886;17.078;2023-01-31T17:22:23;49.20;;;31.60;;
21402;SDS011;10862;51.886;17.078;2023-01-31T17:24:49;33.53;;;26.03;;
21402;SDS011;10862;51.886;17.078;2023-01-31T17:27:16;24.53;;;20.93;;
21402;SDS011;10862;51.886;17.078;2023-01-31T17:29:43;38.17;;;24.83;;
21402;SDS011;10862;51.886;17.078;2023-01-31T17:32:13;30.37;;;26.10;;
21402;SDS011;10862;51.886;17.078;2023-01-31T17:34:40;27.50;;;23.50;;
21402;SDS011;10862;51.886;17.078;2023-01-31T17:37:09;36.27;;;26.10;;
21402;SDS011;10862;51.886;17.078;2023-01-31T17:39:34;44.97;;;26.03;;